Amber, Washington
Current Conditions -  °F | °C
As of 6:58 AM on Monday 22 Dec 2014 (Local Time) from KSKA Reporting Station
Clear Clear  
Wind Chill: 24°   Ceiling: Unl
Heat Index: 32°   Visibility: 10mi
Dew Point: 29°   Wind: 10mph
Humidity: 89%   Direction: 250°WSW
Pressure: 30.05"   Gusts: NA
Location:  47.411°N, 117.628°W
Report Text: KSKA 221458Z AUTO 25009KT 10SM CLR 00/M01 A3005 RMK AO2 SLP195 60000 T00011015 53015 $
Loading
Personal Weather Stations






























Interactive Weather Map New forecast layout! Learn more

10-Day Weather Forecast

Advertisements
Track Severe Weather on mobile